Time;durP1;ratioP1;P1;durP2;ratioP2;P2;SDS_P1;SDS_P2;PMS_P1;PMS_P2;Temp;Humidity;BMP_temperature;BMP_pressure;BME280_temperature;BME280_humidity;BME280_pressure;Samples;Min_cycle;Max_cycle;Signal;HPM_P1;HPM_P2
2022/03/19 00:00:58;;;;;;;53.17;36.10;;;;;;;0.40;100.00;98713.88;5026406;28;20507;-72
2022/03/19 00:03:29;;;;;;;50.33;34.67;;;;;;;0.75;100.00;98756.06;5012877;28;20435;-72
2022/03/19 00:05:56;;;;;;;50.07;34.87;;;;;;;0.57;100.00;98738.47;5007463;28;20950;-72
2022/03/19 00:08:23;;;;;;;50.07;35.73;;;;;;;0.48;100.00;98712.84;5020161;28;20908;-72
2022/03/19 00:10:50;;;;;;;53.60;36.93;;;;;;;0.41;100.00;98744.09;5019762;28;20458;-72
2022/03/19 00:13:17;;;;;;;56.20;36.30;;;;;;;0.29;100.00;98712.66;5018341;28;20428;-73
2022/03/19 00:15:45;;;;;;;51.30;35.37;;;;;;;0.47;100.00;98747.69;5012664;28;20539;-72
2022/03/19 00:18:12;;;;;;;51.30;35.30;;;;;;;0.48;100.00;98728.47;5013956;28;20547;-72
2022/03/19 00:20:39;;;;;;;60.03;37.83;;;;;;;0.49;100.00;98733.47;5032360;28;20463;-73
2022/03/19 00:23:07;;;;;;;52.00;35.27;;;;;;;0.21;100.00;98743.28;5032176;28;20824;-73
2022/03/19 00:25:33;;;;;;;48.50;36.30;;;;;;;0.30;100.00;98729.06;5021548;28;20562;-72
2022/03/19 00:28:01;;;;;;;58.77;35.63;;;;;;;0.15;100.00;98741.47;5033474;28;20442;-73
2022/03/19 00:30:29;;;;;;;56.83;34.80;;;;;;;-0.02;100.00;98733.25;5013364;28;20486;-73
2022/03/19 00:32:55;;;;;;;47.57;35.73;;;;;;;0.22;100.00;98742.28;5025607;28;20826;-73
2022/03/19 00:35:22;;;;;;;49.97;35.60;;;;;;;0.24;100.00;98732.47;5023256;28;20548;-73
2022/03/19 00:37:52;;;;;;;57.30;35.13;;;;;;;0.32;100.00;98734.88;5018921;28;20481;-73
2022/03/19 00:40:22;;;;;;;56.50;37.70;;;;;;;0.37;100.00;98740.28;5005437;28;20482;-73
2022/03/19 00:42:49;;;;;;;58.17;38.13;;;;;;;0.31;100.00;98730.69;5024851;28;20939;-73
2022/03/19 00:45:16;;;;;;;51.30;36.97;;;;;;;0.23;100.00;98705.66;5012460;28;20515;-73
2022/03/19 00:47:43;;;;;;;49.00;36.87;;;;;;;-0.54;100.00;98622.22;5026922;28;20463;-73
2022/03/19 00:50:10;;;;;;;51.40;34.77;;;;;;;-0.71;100.00;98651.16;5024779;28;20427;-73
2022/03/19 00:52:37;;;;;;;52.67;33.40;;;;;;;-0.22;100.00;98702.03;5021011;28;20530;-73
2022/03/19 00:55:04;;;;;;;50.20;34.50;;;;;;;0.13;100.00;98720.84;5039068;28;20467;-73
2022/03/19 00:57:41;;;;;;;47.63;33.30;;;;;;;-0.17;100.00;98723.03;5049321;28;20470;-73
2022/03/19 01:00:11;;;;;;;56.93;36.47;;;;;;;-0.37;100.00;98711.81;5048088;28;20448;-73
2022/03/19 01:02:40;;;;;;;52.73;34.90;;;;;;;-0.39;100.00;98698.22;5032879;28;20448;-74
2022/03/19 01:05:09;;;;;;;45.70;34.00;;;;;;;-0.53;100.00;98723.38;5032394;28;20986;-73
2022/03/19 01:07:44;;;;;;;59.47;36.27;;;;;;;-0.20;100.00;98723.44;5024459;28;20944;-73
2022/03/19 01:10:17;;;;;;;47.13;31.23;;;;;;;-0.15;100.00;98712.44;5058473;28;20441;-73
2022/03/19 01:12:44;;;;;;;54.27;34.97;;;;;;;-0.44;100.00;98672.78;5012544;28;20419;-74
2022/03/19 01:15:11;;;;;;;49.87;34.00;;;;;;;-0.16;100.00;98709.03;5015074;28;20451;-74
2022/03/19 01:17:39;;;;;;;47.47;32.93;;;;;;;-0.39;100.00;98699.00;5022060;28;20447;-74
2022/03/19 01:20:08;;;;;;;53.43;33.00;;;;;;;-0.07;100.00;98720.03;5012371;28;20482;-74
2022/03/19 01:22:35;;;;;;;47.60;32.50;;;;;;;-0.57;100.00;98680.56;5012479;28;20534;-74
2022/03/19 01:25:05;;;;;;;50.57;33.10;;;;;;;-0.47;100.00;98711.38;4995958;28;20909;-74
2022/03/19 01:27:32;;;;;;;49.37;31.97;;;;;;;-0.62;100.00;98701.94;5011844;28;20489;-74
2022/03/19 01:29:59;;;;;;;47.87;31.57;;;;;;;-0.51;100.00;98704.97;5025095;28;20955;-74
2022/03/19 01:32:26;;;;;;;54.87;32.27;;;;;;;-0.74;100.00;98676.72;5023680;28;20927;-74
2022/03/19 01:34:53;;;;;;;47.43;31.77;;;;;;;-0.41;100.00;98702.78;5026825;28;20444;-74
2022/03/19 01:37:22;;;;;;;50.13;32.57;;;;;;;-0.33;100.00;98698.22;5056635;28;20517;-74
2022/03/19 01:39:49;;;;;;;43.90;32.23;;;;;;;-0.34;100.00;98682.81;5019243;28;20561;-74
2022/03/19 01:42:44;;;;;;;50.87;34.10;;;;;;;-0.30;100.00;98687.41;5001743;28;20541;-74
2022/03/19 01:45:14;;;;;;;50.30;32.13;;;;;;;-0.39;100.00;98662.63;5020501;28;20525;-74
2022/03/19 01:47:41;;;;;;;46.37;32.77;;;;;;;-0.23;100.00;98684.84;5050406;28;20453;-74
2022/03/19 01:50:10;;;;;;;47.73;32.73;;;;;;;-0.27;100.00;98673.22;5020181;28;20901;-74
2022/03/19 01:52:37;;;;;;;46.73;30.77;;;;;;;-0.48;100.00;98652.59;5023978;28;20534;-74
2022/03/19 01:55:05;;;;;;;48.23;32.03;;;;;;;-0.59;100.00;98656.59;5010791;28;20562;-74
2022/03/19 01:57:37;;;;;;;44.60;31.57;;;;;;;-0.70;100.00;98646.75;4994696;28;20547;-74
2022/03/19 02:00:07;;;;;;;47.07;32.17;;;;;;;-0.90;100.00;98629.34;5022809;28;20552;-73
2022/03/19 02:02:42;;;;;;;45.60;29.77;;;;;;;-0.86;100.00;98640.13;5005824;28;20419;-73
2022/03/19 02:05:15;;;;;;;50.03;31.13;;;;;;;-0.87;100.00;98611.75;5016944;28;20503;-73
2022/03/19 02:07:43;;;;;;;43.50;30.20;;;;;;;-0.45;100.00;98673.00;5018619;28;20512;-73
2022/03/19 02:10:11;;;;;;;53.57;32.23;;;;;;;-0.48;100.00;98668.19;5015545;28;20479;-73
2022/03/19 02:12:38;;;;;;;49.13;31.10;;;;;;;-0.66;100.00;98643.59;5018784;28;20435;-73
2022/03/19 02:15:05;;;;;;;47.43;29.77;;;;;;;-0.42;100.00;98670.00;5016866;28;20996;-73
2022/03/19 02:17:32;;;;;;;44.87;33.53;;;;;;;-0.62;100.00;98654.38;5021627;28;20510;-73
2022/03/19 02:20:02;;;;;;;44.17;29.97;;;;;;;-0.85;100.00;98656.50;5023401;28;20498;-73
2022/03/19 02:22:29;;;;;;;45.27;30.87;;;;;;;-1.01;100.00;98626.50;5019795;28;20482;-73
2022/03/19 02:27:44;;;;;;;46.33;30.37;;;;;;;-0.86;100.00;98632.34;5023843;28;20938;-73
2022/03/19 02:30:14;;;;;;;42.03;30.53;;;;;;;-0.82;100.00;98635.34;4994790;28;20438;-73
2022/03/19 02:32:44;;;;;;;51.00;32.77;;;;;;;-0.77;100.00;98649.34;5023505;28;20485;-73
2022/03/19 02:35:11;;;;;;;47.53;31.60;;;;;;;-0.68;100.00;98637.78;5019606;28;20453;-73
2022/03/19 02:37:43;;;;;;;45.43;28.50;;;;;;;-0.55;100.00;98641.41;5028111;28;20438;-73
2022/03/19 02:40:13;;;;;;;46.60;31.40;;;;;;;-0.64;100.00;98635.59;4993850;28;21015;-73
2022/03/19 02:42:43;;;;;;;40.53;29.00;;;;;;;-0.81;100.00;98619.56;5011575;28;20435;-73
2022/03/19 02:45:10;;;;;;;48.40;30.97;;;;;;;-0.66;100.00;98640.19;5037041;28;20811;-73
2022/03/19 02:47:56;;;;;;;41.67;31.13;;;;;;;-0.50;100.00;98626.81;5012573;28;20477;-73
2022/03/19 02:50:29;;;;;;;52.03;32.00;;;;;;;-0.69;100.00;98632.78;5023239;28;20427;-73
2022/03/19 02:52:57;;;;;;;43.00;28.20;;;;;;;-1.10;100.00;98596.50;5022420;28;20519;-73
2022/03/19 02:55:25;;;;;;;47.40;31.13;;;;;;;-1.32;100.00;98601.84;5024885;28;20459;-73
2022/03/19 02:57:52;;;;;;;48.60;31.13;;;;;;;-1.16;100.00;98638.81;5050742;28;20423;-73
2022/03/19 03:00:19;;;;;;;41.10;27.93;;;;;;;-1.24;100.00;98634.59;5016522;28;20498;-72
2022/03/19 03:02:45;;;;;;;38.93;28.90;;;;;;;-1.41;100.00;98592.63;5021412;28;20974;-73
2022/03/19 03:05:12;;;;;;;40.77;30.43;;;;;;;-1.24;100.00;98604.25;5026255;28;20480;-73
2022/03/19 03:07:40;;;;;;;50.00;31.50;;;;;;;-1.27;100.00;98589.06;5015331;28;21070;-73
2022/03/19 03:10:08;;;;;;;46.53;29.40;;;;;;;-1.17;100.00;98600.91;4997469;28;20486;-73
2022/03/19 03:12:35;;;;;;;50.40;32.40;;;;;;;-0.97;100.00;98618.13;5022567;28;20474;-73
2022/03/19 03:15:03;;;;;;;43.90;30.87;;;;;;;-0.88;100.00;98628.34;5001391;28;20448;-73
2022/03/19 03:17:30;;;;;;;38.67;28.23;;;;;;;-0.94;100.00;98624.72;4997483;28;20483;-73
2022/03/19 03:19:56;;;;;;;48.57;28.53;;;;;;;-1.09;100.00;98613.69;5026883;28;20566;-73
2022/03/19 03:22:23;;;;;;;42.90;28.20;;;;;;;-1.01;100.00;98613.53;5013633;28;20513;-73
2022/03/19 03:24:50;;;;;;;41.57;29.70;;;;;;;-1.23;100.00;98613.63;5013501;28;21001;-72
2022/03/19 03:27:17;;;;;;;44.53;30.07;;;;;;;-1.14;100.00;98608.28;5013842;28;20434;-72
2022/03/19 03:29:44;;;;;;;39.20;28.20;;;;;;;-1.20;100.00;98605.47;5010402;28;20789;-73
2022/03/19 03:32:11;;;;;;;40.10;29.63;;;;;;;-1.52;100.00;98596.53;5029915;28;20459;-72
2022/03/19 03:34:38;;;;;;;40.93;31.60;;;;;;;-1.42;100.00;98618.75;5013622;28;20464;-72
2022/03/19 03:37:05;;;;;;;47.00;30.27;;;;;;;-1.56;100.00;98589.34;5013720;28;20428;-72
2022/03/19 03:39:32;;;;;;;42.83;27.63;;;;;;;-1.43;100.00;98615.34;5018369;28;20595;-72
2022/03/19 03:41:59;;;;;;;44.00;32.13;;;;;;;-1.33;100.00;98610.63;5055612;28;20450;-72
2022/03/19 03:44:26;;;;;;;40.00;26.90;;;;;;;-1.52;100.00;98591.34;5042645;28;20511;-72
2022/03/19 03:46:52;;;;;;;42.27;27.43;;;;;;;-1.65;100.00;98587.91;5025447;28;20954;-72
2022/03/19 03:49:19;;;;;;;49.60;31.40;;;;;;;-1.60;100.00;98585.56;5015169;28;20447;-72
2022/03/19 03:51:46;;;;;;;42.03;28.80;;;;;;;-1.44;100.00;98607.78;5013319;28;20444;-72
2022/03/19 03:54:12;;;;;;;44.90;31.90;;;;;;;-1.48;100.00;98600.34;5027388;28;20471;-72
2022/03/19 03:56:39;;;;;;;46.30;30.43;;;;;;;-1.58;100.00;98578.38;5025890;28;20521;-72
2022/03/19 03:59:06;;;;;;;48.80;29.80;;;;;;;-1.60;100.00;98601.91;5029591;28;20546;-72
2022/03/19 04:01:32;;;;;;;44.33;30.40;;;;;;;-1.52;100.00;98601.72;5032660;28;20474;-72
2022/03/19 04:03:59;;;;;;;42.93;29.43;;;;;;;-1.50;100.00;98596.34;5014195;28;20531;-72
2022/03/19 04:06:26;;;;;;;46.20;27.93;;;;;;;-1.47;100.00;98606.34;5012871;28;20437;-72
2022/03/19 04:08:52;;;;;;;43.13;30.93;;;;;;;-1.88;100.00;98537.13;5029213;28;20428;-72
2022/03/19 04:11:19;;;;;;;39.17;26.33;;;;;;;-1.48;100.00;98604.72;5029214;28;20547;-72
2022/03/19 04:13:46;;;;;;;38.17;27.40;;;;;;;-1.83;100.00;98555.50;5031210;28;20447;-72
2022/03/19 04:16:12;;;;;;;40.13;31.07;;;;;;;-1.93;100.00;98570.59;5032533;28;20553;-72
2022/03/19 04:18:40;;;;;;;39.67;27.07;;;;;;;-1.73;100.00;98593.25;5013459;28;20526;-72
2022/03/19 04:21:07;;;;;;;44.97;27.87;;;;;;;-1.78;100.00;98588.63;5025073;28;20534;-72
2022/03/19 04:23:34;;;;;;;51.73;30.17;;;;;;;-2.10;100.00;98556.34;5015991;28;20439;-72
2022/03/19 04:26:02;;;;;;;47.97;32.10;;;;;;;-1.98;100.00;98577.34;5003414;28;20473;-72
2022/03/19 04:28:28;;;;;;;47.00;31.20;;;;;;;-1.93;100.00;98565.41;5033313;28;20426;-72
2022/03/19 04:30:55;;;;;;;51.90;34.77;;;;;;;-1.76;100.00;98572.88;5020822;28;20471;-72
2022/03/19 04:33:22;;;;;;;46.87;32.60;;;;;;;-1.75;100.00;98580.47;4996058;28;20447;-72
2022/03/19 04:38:34;;;;;;;52.30;32.90;;;;;;;-1.65;100.00;98583.50;5024727;28;20759;-72
2022/03/19 04:41:01;;;;;;;52.73;32.67;;;;;;;-1.73;100.00;98581.09;5031124;28;20487;-72
2022/03/19 04:43:27;;;;;;;51.50;33.43;;;;;;;-1.91;100.00;98539.28;5031929;28;20522;-72
2022/03/19 04:45:54;;;;;;;50.27;35.23;;;;;;;-1.66;100.00;98581.13;5019720;28;20539;-72
2022/03/19 04:48:20;;;;;;;51.47;31.57;;;;;;;-1.77;100.00;98571.28;5006043;28;20424;-72
2022/03/19 04:50:48;;;;;;;44.73;31.87;;;;;;;-1.79;100.00;98595.59;5028510;28;21008;-72
2022/03/19 04:53:15;;;;;;;53.97;33.03;;;;;;;-1.81;100.00;98592.41;5022058;28;20486;-72
2022/03/19 04:55:42;;;;;;;53.47;30.40;;;;;;;-1.88;100.00;98588.97;5028398;28;20948;-72
2022/03/19 04:58:09;;;;;;;55.80;35.67;;;;;;;-2.22;100.00;98539.72;5023104;28;20444;-72
2022/03/19 05:00:37;;;;;;;49.30;31.60;;;;;;;-1.80;100.00;98598.38;5031534;28;20467;-72
2022/03/19 05:03:07;;;;;;;51.43;31.47;;;;;;;-1.83;100.00;98594.41;5064501;28;20430;-72
2022/03/19 05:05:34;;;;;;;55.27;32.60;;;;;;;-1.95;100.00;98582.16;5028213;28;20488;-72
2022/03/19 05:08:03;;;;;;;57.47;31.47;;;;;;;-1.80;100.00;98588.03;5028147;28;20558;-72
2022/03/19 05:13:17;;;;;;;48.23;30.40;;;;;;;-1.81;100.00;98563.09;5027002;28;20422;-72
2022/03/19 05:15:44;;;;;;;48.20;31.60;;;;;;;-1.65;100.00;98593.09;5024610;28;20462;-72
2022/03/19 05:18:11;;;;;;;43.50;31.20;;;;;;;-1.61;100.00;98599.47;5025836;28;20489;-72
2022/03/19 05:20:37;;;;;;;50.23;33.13;;;;;;;-1.63;100.00;98589.31;5031043;28;20574;-72
2022/03/19 05:23:08;;;;;;;50.10;30.77;;;;;;;-1.65;100.00;98583.50;5032329;28;20424;-72
2022/03/19 05:25:35;;;;;;;54.63;33.10;;;;;;;-1.78;100.00;98554.91;5030999;28;20451;-72
2022/03/19 05:28:02;;;;;;;55.90;31.50;;;;;;;-1.60;100.00;98578.56;5028875;28;20526;-72
2022/03/19 05:30:49;;;;;;;49.23;31.07;;;;;;;-1.72;100.00;98543.00;5011627;28;20424;-72
2022/03/19 05:33:16;;;;;;;41.83;31.17;;;;;;;-1.63;100.00;98562.56;5011151;28;20436;-72
2022/03/19 05:35:44;;;;;;;50.47;31.90;;;;;;;-1.55;100.00;98601.31;5024626;28;20443;-72
2022/03/19 05:38:12;;;;;;;49.50;31.63;;;;;;;-1.46;100.00;98589.00;5032068;28;20524;-72
2022/03/19 05:40:38;;;;;;;42.17;27.80;;;;;;;-1.45;100.00;98585.41;5030827;28;20465;-72
2022/03/19 05:43:05;;;;;;;48.67;30.07;;;;;;;-1.47;100.00;98575.22;5030851;28;20443;-72
2022/03/19 05:45:32;;;;;;;51.53;31.43;;;;;;;-1.57;100.00;98557.44;5017905;28;20820;-72
2022/03/19 05:47:58;;;;;;;51.13;32.13;;;;;;;-1.51;100.00;98567.03;5024128;28;20444;-72
2022/03/19 05:50:25;;;;;;;54.33;35.40;;;;;;;-1.36;100.00;98590.22;5030824;28;20516;-72
2022/03/19 05:52:52;;;;;;;46.10;32.37;;;;;;;-1.27;100.00;98581.28;5020460;28;20470;-72
2022/03/19 05:55:18;;;;;;;44.60;29.67;;;;;;;-1.27;100.00;98585.69;5017487;28;20550;-72
2022/03/19 05:57:45;;;;;;;50.30;30.90;;;;;;;-1.44;100.00;98581.81;5014834;28;20437;-72
2022/03/19 06:00:12;;;;;;;50.40;32.50;;;;;;;-1.26;100.00;98579.50;5030368;28;20474;-72
2022/03/19 06:02:40;;;;;;;46.80;30.00;;;;;;;-1.18;100.00;98574.16;5031894;28;20435;-72
2022/03/19 06:05:07;;;;;;;53.10;34.50;;;;;;;-1.24;100.00;98578.31;5017190;28;20562;-72
2022/03/19 06:07:34;;;;;;;52.70;34.27;;;;;;;-1.21;100.00;98570.13;5004220;28;20430;-72
2022/03/19 06:10:01;;;;;;;55.53;32.73;;;;;;;-1.50;100.00;98536.69;5030056;28;20997;-72
2022/03/19 06:12:27;;;;;;;48.80;29.97;;;;;;;-1.23;100.00;98566.91;5030694;28;21156;-72
2022/03/19 06:14:54;;;;;;;45.27;31.40;;;;;;;-1.46;100.00;98537.13;5031738;28;20549;-73
2022/03/19 06:17:21;;;;;;;54.73;35.40;;;;;;;-1.43;100.00;98527.16;5033817;28;20442;-73
2022/03/19 06:19:48;;;;;;;52.50;35.37;;;;;;;-1.09;100.00;98548.78;5017038;28;20547;-73
2022/03/19 06:22:14;;;;;;;68.40;41.43;;;;;;;-1.30;100.00;98523.81;5030209;28;21009;-73
2022/03/19 06:24:41;;;;;;;64.73;39.77;;;;;;;-1.21;100.00;98538.19;5030193;28;20459;-73
2022/03/19 06:27:07;;;;;;;67.87;41.27;;;;;;;-0.88;100.00;98546.06;5030343;28;20435;-73
2022/03/19 06:29:34;;;;;;;75.10;44.60;;;;;;;-0.94;100.00;98546.81;5030137;28;20460;-73
2022/03/19 06:32:01;;;;;;;67.73;41.70;;;;;;;-1.03;100.00;98509.09;5030206;28;20493;-73
2022/03/19 06:34:30;;;;;;;80.37;40.60;;;;;;;-0.97;100.00;98514.28;5014884;28;20458;-73
2022/03/19 06:39:42;;;;;;;62.30;38.60;;;;;;;-0.62;100.00;98509.72;5037121;28;21303;-73
2022/03/19 06:42:09;;;;;;;56.90;36.13;;;;;;;-0.46;100.00;98518.91;5034916;28;20447;-73
2022/03/19 06:44:38;;;;;;;61.20;38.10;;;;;;;-0.41;100.00;98520.88;5034413;28;20465;-73
2022/03/19 06:47:06;;;;;;;58.67;37.80;;;;;;;-0.17;100.00;98522.84;5026478;28;20480;-73
2022/03/19 06:49:33;;;;;;;61.53;38.27;;;;;;;-0.26;100.00;98497.31;5027664;28;20427;-73
2022/03/19 06:51:59;;;;;;;75.13;41.37;;;;;;;-0.21;100.00;98472.28;5027268;28;20490;-74
2022/03/19 06:54:26;;;;;;;63.10;43.07;;;;;;;0.10;100.00;98499.41;5026963;28;20483;-74
2022/03/19 06:56:54;;;;;;;69.97;45.80;;;;;;;0.20;100.00;98469.34;5010702;28;20944;-74
2022/03/19 06:59:20;;;;;;;81.43;42.90;;;;;;;0.49;100.00;98465.41;5028287;28;20430;-74
2022/03/19 07:01:47;;;;;;;55.37;38.83;;;;;;;0.88;100.00;98493.03;5017052;28;20427;-74
2022/03/19 07:04:15;;;;;;;79.73;47.20;;;;;;;1.16;100.00;98461.38;5013126;28;20538;-73
2022/03/19 07:06:42;;;;;;;86.93;51.33;;;;;;;1.33;100.00;98456.41;5009969;28;20563;-73
2022/03/19 07:09:28;;;;;;;67.13;41.47;;;;;;;1.95;100.00;98495.56;5020684;28;20423;-73
2022/03/19 07:11:54;;;;;;;67.73;43.57;;;;;;;2.25;100.00;98456.47;5049424;28;20779;-73
2022/03/19 07:14:22;;;;;;;58.67;35.60;;;;;;;2.53;100.00;98482.81;5021456;28;20456;-73
2022/03/19 07:16:49;;;;;;;52.80;33.50;;;;;;;2.73;100.00;98477.34;5027585;28;20435;-73
2022/03/19 07:19:16;;;;;;;62.23;36.60;;;;;;;3.15;100.00;98496.44;5020781;28;20487;-72
2022/03/19 07:21:43;;;;;;;54.23;33.20;;;;;;;3.34;100.00;98498.94;5010158;28;20443;-72
2022/03/19 07:24:09;;;;;;;50.43;33.40;;;;;;;3.46;100.00;98468.38;5011162;28;21174;-72
2022/03/19 07:26:36;;;;;;;50.37;31.33;;;;;;;3.62;100.00;98467.72;5009910;28;20437;-73
2022/03/19 07:29:04;;;;;;;41.83;28.50;;;;;;;3.91;100.00;98496.59;5010155;28;20440;-73
2022/03/19 07:31:30;;;;;;;33.60;24.73;;;;;;;4.02;100.00;98474.84;5010468;28;20515;-73
2022/03/19 07:33:57;;;;;;;37.43;28.10;;;;;;;4.13;100.00;98471.38;5010262;28;20972;-73
2022/03/19 07:36:24;;;;;;;32.53;21.80;;;;;;;4.24;100.00;98462.72;5027061;28;20849;-73
2022/03/19 07:38:51;;;;;;;26.93;19.83;;;;;;;4.30;100.00;98484.56;5026967;28;20543;-73
2022/03/19 07:44:04;;;;;;;32.30;21.13;;;;;;;4.66;100.00;98486.03;5042698;28;20494;-73
2022/03/19 07:46:31;;;;;;;36.47;21.90;;;;;;;4.78;100.00;98501.72;5026117;28;20495;-73
2022/03/19 07:48:57;;;;;;;32.23;22.53;;;;;;;4.86;100.00;98468.06;5009510;28;20433;-73
2022/03/19 07:51:24;;;;;;;33.10;22.33;;;;;;;5.02;100.00;98490.09;5011422;28;20509;-73
2022/03/19 07:53:51;;;;;;;27.77;17.70;;;;;;;5.02;100.00;98496.13;5046155;28;21028;-73
2022/03/19 07:56:17;;;;;;;27.67;20.23;;;;;;;5.23;100.00;98475.50;5014513;28;20799;-73
2022/03/19 07:58:50;;;;;;;25.33;19.97;;;;;;;5.44;100.00;98484.47;5030737;28;20480;-73
2022/03/19 08:01:18;;;;;;;28.00;17.70;;;;;;;5.41;100.00;98484.94;5016702;28;20466;-74
2022/03/19 08:03:45;;;;;;;24.77;17.40;;;;;;;5.32;100.00;98484.53;5032950;28;20428;-74
2022/03/19 08:06:13;;;;;;;26.90;18.60;;;;;;;5.23;100.00;98444.03;5032945;28;20431;-74
2022/03/19 08:08:40;;;;;;;28.33;18.77;;;;;;;5.29;100.00;98477.16;5000252;28;21039;-73
2022/03/19 08:11:07;;;;;;;25.90;16.90;;;;;;;5.11;100.00;98438.84;5012831;28;20436;-73
2022/03/19 08:13:34;;;;;;;26.30;17.57;;;;;;;5.33;100.00;98452.81;5014131;28;21222;-73
2022/03/19 08:16:00;;;;;;;27.27;17.50;;;;;;;5.50;100.00;98468.56;5029069;28;20456;-73
2022/03/19 08:18:29;;;;;;;28.07;17.57;;;;;;;5.53;100.00;98444.47;5013140;28;20789;-72
2022/03/19 08:20:57;;;;;;;24.80;16.70;;;;;;;5.60;100.00;98433.78;5023021;28;20998;-73
2022/03/19 08:23:24;;;;;;;22.97;16.67;;;;;;;5.80;100.00;98441.94;5033736;28;20428;-73
2022/03/19 08:25:50;;;;;;;26.30;16.70;;;;;;;6.03;100.00;98442.81;5022848;28;20445;-73
2022/03/19 08:28:17;;;;;;;21.13;15.30;;;;;;;5.76;100.00;98432.97;5027360;28;20459;-73
2022/03/19 08:30:44;;;;;;;34.43;15.77;;;;;;;5.52;100.00;98398.28;5012757;28;20441;-73
2022/03/19 08:33:10;;;;;;;22.20;15.77;;;;;;;5.67;100.00;98425.75;5012777;28;20433;-73
2022/03/19 08:35:37;;;;;;;17.87;14.67;;;;;;;5.58;100.00;98418.28;5029234;28;20552;-73
2022/03/19 08:40:49;;;;;;;15.77;12.40;;;;;;;5.62;100.00;98450.09;5018862;28;21107;-73
2022/03/19 08:43:15;;;;;;;23.27;13.77;;;;;;;5.76;100.00;98453.97;5026000;28;20427;-73
2022/03/19 08:45:42;;;;;;;16.07;9.70;;;;;;;5.55;100.00;98425.84;5059486;28;20451;-73
2022/03/19 08:48:09;;;;;;;20.80;13.67;;;;;;;5.55;100.00;98439.78;5040640;28;20433;-73
2022/03/19 08:50:36;;;;;;;20.70;13.90;;;;;;;5.41;100.00;98414.91;5028432;28;20552;-73
2022/03/19 08:53:03;;;;;;;21.10;11.03;;;;;;;5.21;100.00;98412.00;5023349;28;20481;-73
2022/03/19 08:55:29;;;;;;;22.47;13.03;;;;;;;5.71;100.00;98432.09;5001534;28;20556;-73
2022/03/19 08:57:56;;;;;;;19.30;13.10;;;;;;;5.62;100.00;98402.88;5065096;28;20534;-73
2022/03/19 09:00:23;;;;;;;21.10;12.40;;;;;;;5.93;100.00;98425.09;5019596;28;20464;-73
2022/03/19 09:02:49;;;;;;;16.90;12.37;;;;;;;6.44;100.00;98415.94;5021877;28;20539;-73
2022/03/19 09:05:16;;;;;;;16.70;10.80;;;;;;;6.35;100.00;98416.63;5014477;28;20464;-73
2022/03/19 09:07:43;;;;;;;18.60;9.63;;;;;;;6.25;100.00;98392.88;5022264;28;20536;-73
2022/03/19 09:10:10;;;;;;;21.23;9.43;;;;;;;6.41;100.00;98392.81;5026202;28;20448;-73
2022/03/19 09:12:38;;;;;;;15.80;8.63;;;;;;;6.25;100.00;98367.38;5018794;28;20474;-73
2022/03/19 09:15:08;;;;;;;8.33;6.37;;;;;;;6.16;100.00;98364.44;5024959;28;20489;-73
2022/03/19 09:17:35;;;;;;;9.37;6.30;;;;;;;6.04;100.00;98391.88;5011716;28;20433;-73
2022/03/19 09:20:03;;;;;;;14.33;8.10;;;;;;;6.29;100.00;98409.75;5015240;28;20482;-73
2022/03/19 09:22:30;;;;;;;10.57;7.77;;;;;;;5.69;100.00;98377.22;5023369;28;20866;-74
2022/03/19 09:24:57;;;;;;;10.10;7.10;;;;;;;5.56;100.00;98399.38;5051985;28;20573;-74
2022/03/19 09:27:24;;;;;;;11.43;7.20;;;;;;;5.59;100.00;98375.25;5020754;28;20961;-74
2022/03/19 09:29:51;;;;;;;8.63;6.43;;;;;;;6.04;100.00;98395.28;5023681;28;20450;-74
2022/03/19 09:32:18;;;;;;;10.87;7.17;;;;;;;5.84;100.00;98356.41;5003544;28;20520;-74
2022/03/19 09:34:47;;;;;;;8.93;6.47;;;;;;;5.98;100.00;98345.56;5016103;28;20614;-74
2022/03/19 09:37:15;;;;;;;9.57;7.40;;;;;;;5.78;100.00;98367.91;5021102;28;20430;-74
2022/03/19 09:39:42;;;;;;;9.70;6.63;;;;;;;5.71;100.00;98372.53;5014498;28;20847;-74
2022/03/19 09:42:13;;;;;;;10.50;6.70;;;;;;;6.04;100.00;98376.13;5024608;28;20452;-74
2022/03/19 09:44:43;;;;;;;8.13;5.50;;;;;;;5.98;100.00;98377.06;5013658;28;20448;-74
2022/03/19 09:47:11;;;;;;;7.90;6.27;;;;;;;5.70;99.53;98378.03;5011702;28;20526;-74
2022/03/19 09:49:38;;;;;;;7.60;5.20;;;;;;;5.31;99.11;98346.56;5006822;28;20798;-73
2022/03/19 09:52:05;;;;;;;4.67;4.00;;;;;;;5.55;97.93;98378.63;5017724;28;21017;-74
2022/03/19 09:54:32;;;;;;;5.53;4.90;;;;;;;5.62;98.04;98324.94;5057662;28;20457;-73
2022/03/19 09:56:59;;;;;;;5.97;4.27;;;;;;;6.02;92.44;98355.34;5041101;28;20454;-74
2022/03/19 09:59:27;;;;;;;8.13;5.20;;;;;;;6.36;93.25;98350.69;5018089;28;20523;-74
2022/03/19 10:01:54;;;;;;;11.30;5.03;;;;;;;6.48;88.98;98325.06;5017481;28;20984;-74
2022/03/19 10:04:22;;;;;;;6.07;4.13;;;;;;;6.77;86.24;98343.16;5023361;28;20455;-74
2022/03/19 10:09:45;;;;;;;6.20;4.37;;;;;;;6.41;83.83;98334.19;5012313;28;20468;-74
2022/03/19 10:12:23;;;;;;;10.97;4.67;;;;;;;6.23;83.84;98333.50;5029545;28;20421;-74
2022/03/19 10:14:53;;;;;;;7.87;5.20;;;;;;;6.23;83.04;98323.00;5018849;28;20819;-74
2022/03/19 10:17:28;;;;;;;6.50;4.33;;;;;;;6.24;81.84;98273.88;5005224;28;20490;-74
2022/03/19 10:20:14;;;;;;;7.53;4.97;;;;;;;6.47;81.02;98294.56;5017192;28;20447;-74
2022/03/19 10:22:43;;;;;;;5.90;5.07;;;;;;;6.79;80.58;98307.69;5036327;28;20539;-74
2022/03/19 10:25:11;;;;;;;5.70;4.60;;;;;;;6.92;81.86;98310.91;5040536;28;20523;-73
2022/03/19 10:27:41;;;;;;;7.10;4.87;;;;;;;7.13;79.79;98317.91;5027532;28;20441;-73
2022/03/19 10:30:10;;;;;;;12.17;5.07;;;;;;;6.90;79.03;98313.00;5023907;28;20429;-73
2022/03/19 10:32:41;;;;;;;4.97;4.00;;;;;;;6.60;80.03;98303.88;5023281;28;20544;-73
2022/03/19 10:35:32;;;;;;;4.20;3.80;;;;;;;6.12;81.33;98304.75;5019386;28;20447;-73
2022/03/19 10:38:16;;;;;;;6.10;4.40;;;;;;;6.03;84.19;98298.38;5018648;28;20424;-73
2022/03/19 10:40:48;;;;;;;7.23;4.73;;;;;;;5.03;99.45;98279.31;5046590;28;20471;-74
2022/03/19 10:43:20;;;;;;;6.30;4.33;;;;;;;4.84;100.00;98330.44;4998680;28;20440;-74
2022/03/19 10:45:49;;;;;;;5.70;4.03;;;;;;;4.22;100.00;98343.53;4995962;28;20981;-74
2022/03/19 10:48:23;;;;;;;12.20;5.30;;;;;;;3.23;100.00;98289.59;5022534;28;20446;-74
2022/03/19 10:50:51;;;;;;;8.40;7.03;;;;;;;3.48;100.00;98310.25;5028532;28;20936;-75
2022/03/19 10:53:19;;;;;;;5.40;4.17;;;;;;;3.24;100.00;98324.38;5002698;28;20509;-74
2022/03/19 10:55:46;;;;;;;7.67;5.20;;;;;;;3.55;100.00;98317.94;5005267;28;20543;-75
2022/03/19 10:58:13;;;;;;;5.40;4.03;;;;;;;3.35;100.00;98286.97;5017608;28;20482;-74
2022/03/19 11:01:00;;;;;;;3.63;3.30;;;;;;;3.56;100.00;98307.25;5031789;28;20915;-73
2022/03/19 11:03:30;;;;;;;3.70;3.17;;;;;;;3.38;100.00;98322.31;5031374;28;20463;-73
2022/03/19 11:06:07;;;;;;;4.27;3.87;;;;;;;3.32;100.00;98239.56;5030930;28;20839;-73
2022/03/19 11:08:44;;;;;;;9.23;3.10;;;;;;;3.93;100.00;98306.13;5015070;28;20792;-73
2022/03/19 11:11:16;;;;;;;2.97;2.63;;;;;;;3.88;100.00;98296.38;5021979;28;20492;-73
2022/03/19 11:13:52;;;;;;;3.00;2.40;;;;;;;3.87;100.00;98263.34;5018411;28;20447;-73
2022/03/19 11:16:21;;;;;;;3.10;2.57;;;;;;;3.77;100.00;98213.47;5020629;28;21078;-73
2022/03/19 11:18:52;;;;;;;5.40;3.87;;;;;;;3.88;100.00;98223.09;5011953;28;20486;-73
2022/03/19 11:21:20;;;;;;;4.03;2.40;;;;;;;4.32;100.00;98234.53;5026552;28;20541;-73
2022/03/19 11:24:03;;;;;;;4.83;2.73;;;;;;;4.74;100.00;98278.66;5029842;28;20454;-74
2022/03/19 11:26:30;;;;;;;7.03;3.57;;;;;;;4.66;100.00;98248.41;5015681;28;20412;-74
2022/03/19 11:28:58;;;;;;;3.90;3.60;;;;;;;4.35;100.00;98257.63;5013737;28;20527;-74
2022/03/19 11:31:28;;;;;;;3.93;3.63;;;;;;;4.10;100.00;98294.66;5030315;28;20420;-73
2022/03/19 11:34:12;;;;;;;4.20;3.47;;;;;;;3.21;100.00;98275.19;5014881;28;20436;-73
2022/03/19 11:36:54;;;;;;;4.60;3.80;;;;;;;2.90;100.00;98284.19;5030424;28;20416;-73
2022/03/19 11:39:21;;;;;;;3.30;3.00;;;;;;;2.51;100.00;98298.69;4998585;28;20966;-73
2022/03/19 11:41:52;;;;;;;7.23;6.53;;;;;;;2.31;100.00;98299.81;5025834;28;20463;-74